Pleasant Hill, Oregon
Current Conditions -  °F | °C
As of 10:00 AM on Thursday 30 Oct 2014 (Local Time) from KEUG Reporting Station
Haze Haze  
Wind Chill: 13°   Ceiling: 200
Heat Index: 13°   Visibility: 0.5mi
Dew Point: 12°   Wind: 5mph
Humidity: 96%   Direction: 230°SW
Pressure: 29.86"   Gusts: NA
Location:  43.97°N, 122.93°W
Report Text: KEUG 301700Z 23004KT 1/2SM R16R/3000V6000FT BR OVC002 13/12 A2986 RMK AO2 SFC VIS 3/4 T01280122
Loading
Personal Weather Stations






























Interactive Weather Map
Tropical Storm Tracking
New forecast layout! Learn more

10-Day Weather Forecast

Advertisements
Track Severe Weather on mobile